Time;durP1;ratioP1;P1;durP2;ratioP2;P2;SDS_P1;SDS_P2;PMS_P1;PMS_P2;Temp;Humidity;BMP_temperature;BMP_pressure;BME280_temperature;BME280_humidity;BME280_pressure;Samples;Min_cycle;Max_cycle;Signal;HPM_P1;HPM_P2
2023/11/13 00:10:43;;;;;;;14.83;7.77;;;;;;;;;;5027067;23;20045;-80
2023/11/13 00:13:10;;;;;;;13.40;7.43;;;;;;;;;;5000037;28;20027;-78
2023/11/13 00:15:38;;;;;;;16.13;8.50;;;;;;;;;;5003637;28;20010;-79
2023/11/13 00:18:08;;;;;;;14.07;7.33;;;;;;;;;;4989217;28;20026;-78
2023/11/13 00:20:41;;;;;;;13.40;7.23;;;;;;;;;;4973406;28;20027;-79
2023/11/13 00:23:08;;;;;;;13.37;6.80;;;;;;;;;;4991013;28;20050;-78
2023/11/13 00:25:37;;;;;;;13.97;7.80;;;;;;;;;;4987227;28;20054;-78
2023/11/13 00:28:03;;;;;;;15.77;7.77;;;;;;;;;;4989006;28;20104;-78
2023/11/13 00:30:29;;;;;;;12.90;6.23;;;;;;;;;;4990821;28;20035;-78
2023/11/13 00:32:55;;;;;;;10.87;5.67;;;;;;;;;;4990301;28;20026;-78
2023/11/13 00:35:21;;;;;;;13.90;6.57;;;;;;;;;;4988117;28;20011;-78
2023/11/13 00:37:52;;;;;;;9.07;5.80;;;;;;;;;;4987152;28;20066;-78
2023/11/13 00:40:31;;;;;;;13.60;6.33;;;;;;;;;;4993718;28;20023;-79
2023/11/13 00:42:59;;;;;;;11.60;6.20;;;;;;;;;;4989706;28;20086;-79
2023/11/13 00:45:32;;;;;;;14.40;6.17;;;;;;;;;;4991380;28;20041;-79
2023/11/13 00:48:05;;;;;;;13.45;6.22;;;;;;;;;;4991651;28;20015;-79
2023/11/13 00:50:31;;;;;;;11.17;5.83;;;;;;;;;;4991659;28;20029;-80
2023/11/13 00:53:00;;;;;;;9.90;5.77;;;;;;;;;;4991038;28;20050;-79
2023/11/13 00:55:26;;;;;;;12.30;6.13;;;;;;;;;;4992997;28;20031;-78
2023/11/13 00:57:55;;;;;;;11.80;5.30;;;;;;;;;;4988185;28;20027;-78
2023/11/13 01:00:24;;;;;;;8.83;5.07;;;;;;;;;;5004255;28;21403;-79
2023/11/13 01:02:55;;;;;;;11.00;5.57;;;;;;;;;;4990377;28;20030;-79
2023/11/13 01:05:26;;;;;;;10.37;5.57;;;;;;;;;;4990127;28;20117;-79
2023/11/13 01:07:54;;;;;;;14.43;5.70;;;;;;;;;;4988513;28;20035;-79
2023/11/13 01:10:21;;;;;;;7.93;5.17;;;;;;;;;;4991343;28;20045;-79
2023/11/13 01:12:52;;;;;;;12.00;6.23;;;;;;;;;;5073359;23;20081;-79
2023/11/13 01:15:18;;;;;;;10.83;5.80;;;;;;;;;;5011476;28;20943;-79
2023/11/13 01:17:51;;;;;;;9.63;4.87;;;;;;;;;;5010688;28;20050;-79
2023/11/13 01:20:18;;;;;;;9.93;4.47;;;;;;;;;;5009417;28;20098;-79
2023/11/13 01:22:49;;;;;;;7.50;4.90;;;;;;;;;;5010456;28;20018;-80
2023/11/13 01:25:15;;;;;;;7.20;4.10;;;;;;;;;;5009483;28;20031;-78
2023/11/13 01:27:41;;;;;;;9.00;4.50;;;;;;;;;;5010572;28;20046;-80
2023/11/13 01:30:09;;;;;;;11.47;5.10;;;;;;;;;;5010984;28;20039;-78
2023/11/13 01:32:40;;;;;;;9.03;4.27;;;;;;;;;;5009151;28;20022;-79
2023/11/13 01:35:07;;;;;;;10.47;4.37;;;;;;;;;;4993604;28;20026;-77
2023/11/13 01:37:37;;;;;;;8.17;4.07;;;;;;;;;;4995244;28;20023;-79
2023/11/13 01:40:05;;;;;;;9.57;4.63;;;;;;;;;;4990550;28;20046;-79
2023/11/13 01:42:37;;;;;;;9.47;4.33;;;;;;;;;;5009439;28;20019;-81
2023/11/13 01:45:06;;;;;;;5.67;4.73;;;;;;;;;;5010459;28;20038;-80
2023/11/13 01:47:34;;;;;;;8.87;4.50;;;;;;;;;;5009750;28;20014;-79
2023/11/13 01:50:03;;;;;;;8.73;5.07;;;;;;;;;;5009927;28;20030;-78
2023/11/13 01:52:32;;;;;;;7.40;4.40;;;;;;;;;;5009930;28;20023;-78
2023/11/13 01:55:01;;;;;;;7.43;4.17;;;;;;;;;;4989012;28;20027;-78
2023/11/13 01:57:27;;;;;;;9.07;4.47;;;;;;;;;;4989206;28;20019;-79
2023/11/13 02:00:05;;;;;;;9.73;4.90;;;;;;;;;;5007330;28;20197;-79
2023/11/13 02:02:33;;;;;;;7.67;4.20;;;;;;;;;;5009433;28;20082;-79
2023/11/13 02:05:02;;;;;;;9.00;4.07;;;;;;;;;;5009304;28;20035;-79
2023/11/13 02:07:30;;;;;;;7.03;3.87;;;;;;;;;;5009987;28;20022;-79
2023/11/13 02:09:56;;;;;;;7.30;3.90;;;;;;;;;;4993338;28;20115;-79
2023/11/13 02:12:22;;;;;;;8.40;4.37;;;;;;;;;;4991954;28;20025;-79
2023/11/13 02:14:51;;;;;;;6.20;3.77;;;;;;;;;;5009394;28;20042;-78
2023/11/13 02:17:28;;;;;;;6.73;3.80;;;;;;;;;;5009428;28;20180;-79
2023/11/13 02:19:56;;;;;;;10.00;4.10;;;;;;;;;;4993679;28;20027;-80
2023/11/13 02:22:22;;;;;;;8.10;3.70;;;;;;;;;;5009338;28;20011;-79
2023/11/13 02:24:51;;;;;;;5.93;3.57;;;;;;;;;;4993438;28;20045;-79
2023/11/13 02:27:21;;;;;;;5.93;3.90;;;;;;;;;;5009724;28;20026;-79
2023/11/13 02:29:49;;;;;;;6.03;3.77;;;;;;;;;;5009868;28;20015;-79
2023/11/13 02:32:31;;;;;;;;;;;;;;;;;;;;;
2023/11/13 02:34:57;;;;;;;5.57;4.05;;;;;;;;;;4994106;28;20046;-79
2023/11/13 02:37:30;;;;;;;5.17;3.60;;;;;;;;;;4994088;28;20010;-79
2023/11/13 02:39:56;;;;;;;5.33;3.87;;;;;;;;;;5009117;28;20031;-79
2023/11/13 02:42:22;;;;;;;10.40;4.17;;;;;;;;;;5008431;28;20015;-79
2023/11/13 02:44:48;;;;;;;6.80;3.90;;;;;;;;;;4996689;28;20034;-78
2023/11/13 02:47:17;;;;;;;7.50;4.20;;;;;;;;;;4997280;28;20027;-79
2023/11/13 02:49:45;;;;;;;10.33;4.20;;;;;;;;;;4996409;28;20128;-79
2023/11/13 02:52:17;;;;;;;7.83;4.10;;;;;;;;;;4996990;28;20017;-80
2023/11/13 02:54:43;;;;;;;7.50;3.87;;;;;;;;;;5012002;28;20102;-79
2023/11/13 02:57:13;;;;;;;8.00;4.47;;;;;;;;;;4995593;28;20031;-79
2023/11/13 02:59:50;;;;;;;6.37;4.37;;;;;;;;;;5012348;28;20516;-79
2023/11/13 03:02:22;;;;;;;8.57;4.20;;;;;;;;;;4996909;28;20108;-80
2023/11/13 03:04:48;;;;;;;6.55;3.88;;;;;;;;;;5010805;28;20035;-79
2023/11/13 03:07:14;;;;;;;7.30;4.20;;;;;;;;;;4992680;28;20098;-80
2023/11/13 03:09:46;;;;;;;8.93;4.90;;;;;;;;;;5010372;28;20054;-79
2023/11/13 03:12:12;;;;;;;6.23;4.27;;;;;;;;;;5009972;28;20224;-79
2023/11/13 03:14:38;;;;;;;8.07;4.70;;;;;;;;;;5011980;28;20027;-80
2023/11/13 03:17:04;;;;;;;10.90;4.37;;;;;;;;;;5012612;28;20022;-79
2023/11/13 03:19:35;;;;;;;9.57;4.27;;;;;;;;;;4996251;28;20055;-79
2023/11/13 03:22:02;;;;;;;6.77;4.47;;;;;;;;;;5012511;28;20019;-80
2023/11/13 03:24:28;;;;;;;9.07;4.60;;;;;;;;;;4996216;28;20043;-79
2023/11/13 03:26:57;;;;;;;8.57;4.60;;;;;;;;;;5011402;28;20027;-79
2023/11/13 03:29:26;;;;;;;7.73;4.80;;;;;;;;;;5008683;28;20054;-79
2023/11/13 03:31:52;;;;;;;7.60;4.40;;;;;;;;;;5009685;28;20062;-79
2023/11/13 03:34:20;;;;;;;7.00;5.07;;;;;;;;;;4996227;28;20195;-77
2023/11/13 03:36:47;;;;;;;8.03;4.90;;;;;;;;;;5010894;28;20031;-79
2023/11/13 03:39:15;;;;;;;7.97;4.50;;;;;;;;;;4995672;28;20018;-79
2023/11/13 03:41:41;;;;;;;9.03;5.20;;;;;;;;;;4996193;28;20051;-78
2023/11/13 03:44:10;;;;;;;8.93;5.10;;;;;;;;;;4995677;28;20050;-79
2023/11/13 03:46:44;;;;;;;10.07;4.87;;;;;;;;;;4995604;28;20014;-78
2023/11/13 03:49:12;;;;;;;10.90;5.00;;;;;;;;;;5010681;28;20050;-79
2023/11/13 03:51:40;;;;;;;9.67;5.80;;;;;;;;;;5011589;28;20082;-79
2023/11/13 03:54:07;;;;;;;8.90;4.93;;;;;;;;;;4994976;28;20034;-78
2023/11/13 03:56:38;;;;;;;9.87;5.50;;;;;;;;;;5010799;28;20069;-79
2023/11/13 03:59:06;;;;;;;7.97;5.27;;;;;;;;;;5010876;28;20029;-78
2023/11/13 04:01:35;;;;;;;9.27;5.30;;;;;;;;;;4994735;28;20082;-77
2023/11/13 04:04:03;;;;;;;9.17;4.73;;;;;;;;;;4996484;28;20027;-78
2023/11/13 04:06:31;;;;;;;8.07;4.90;;;;;;;;;;4996148;28;20006;-78
2023/11/13 04:08:57;;;;;;;9.20;5.20;;;;;;;;;;5007609;28;20011;-78
2023/11/13 04:11:23;;;;;;;8.73;5.00;;;;;;;;;;4994906;28;20023;-78
2023/11/13 04:13:55;;;;;;;12.17;5.10;;;;;;;;;;5009933;28;20034;-79
2023/11/13 04:16:21;;;;;;;10.53;5.27;;;;;;;;;;5007808;28;20011;-78
2023/11/13 04:18:47;;;;;;;8.60;5.30;;;;;;;;;;5010419;28;20018;-78
2023/11/13 04:21:13;;;;;;;8.30;5.07;;;;;;;;;;4995369;28;20070;-79
2023/11/13 04:23:49;;;;;;;9.03;6.07;;;;;;;;;;5010085;28;20031;-78
2023/11/13 04:26:23;;;;;;;10.27;5.17;;;;;;;;;;4994907;28;20050;-79
2023/11/13 04:28:55;;;;;;;8.60;5.23;;;;;;;;;;5010141;28;20031;-79
2023/11/13 04:31:28;;;;;;;10.00;5.90;;;;;;;;;;4995019;28;20022;-78
2023/11/13 04:34:02;;;;;;;12.20;5.57;;;;;;;;;;4995105;28;20011;-78
2023/11/13 04:36:33;;;;;;;10.23;5.83;;;;;;;;;;5010208;28;20018;-78
2023/11/13 04:38:59;;;;;;;11.50;6.37;;;;;;;;;;5010118;28;20027;-79
2023/11/13 04:41:26;;;;;;;10.93;6.60;;;;;;;;;;5009436;28;20066;-79
2023/11/13 04:43:55;;;;;;;12.87;6.60;;;;;;;;;;5008739;28;20022;-78
2023/11/13 04:46:23;;;;;;;17.07;7.37;;;;;;;;;;4999523;28;20011;-78
2023/11/13 04:49:12;;;;;;;13.13;6.87;;;;;;;;;;4993061;28;20082;-78
2023/11/13 04:51:42;;;;;;;14.07;6.60;;;;;;;;;;4988056;28;20029;-78
2023/11/13 04:54:15;;;;;;;10.30;6.50;;;;;;;;;;4998247;28;20039;-78
2023/11/13 04:56:44;;;;;;;15.43;6.93;;;;;;;;;;4999481;28;20045;-78
2023/11/13 04:59:11;;;;;;;13.50;6.37;;;;;;;;;;5015508;28;20062;-78
2023/11/13 05:01:37;;;;;;;11.97;7.03;;;;;;;;;;4999129;28;20038;-78
2023/11/13 05:04:06;;;;;;;14.33;7.77;;;;;;;;;;4992141;28;20023;-79
2023/11/13 05:06:35;;;;;;;13.03;7.50;;;;;;;;;;4992054;28;20007;-78
2023/11/13 05:09:03;;;;;;;14.13;7.77;;;;;;;;;;4986632;28;20023;-78
2023/11/13 05:11:29;;;;;;;13.93;6.90;;;;;;;;;;5012019;28;20030;-79
2023/11/13 05:13:55;;;;;;;10.73;6.23;;;;;;;;;;4998889;28;20091;-78
2023/11/13 05:16:30;;;;;;;10.53;6.57;;;;;;;;;;5010494;28;20015;-78
2023/11/13 05:18:58;;;;;;;15.47;7.67;;;;;;;;;;4999334;28;20011;-78
2023/11/13 05:21:24;;;;;;;14.23;7.87;;;;;;;;;;4999110;28;20050;-78
2023/11/13 05:23:50;;;;;;;12.87;7.67;;;;;;;;;;5000729;28;20098;-79
2023/11/13 05:26:19;;;;;;;14.50;7.97;;;;;;;;;;4999071;28;20042;-79
2023/11/13 05:28:48;;;;;;;12.90;6.87;;;;;;;;;;4998832;28;20023;-78
2023/11/13 05:31:14;;;;;;;11.50;7.13;;;;;;;;;;4998904;28;20062;-78
2023/11/13 05:33:40;;;;;;;15.30;7.27;;;;;;;;;;4998250;28;20022;-77
2023/11/13 05:36:07;;;;;;;13.80;7.07;;;;;;;;;;4999366;28;20022;-79
2023/11/13 05:38:43;;;;;;;13.80;7.10;;;;;;;;;;4998613;28;20018;-79
2023/11/13 05:41:10;;;;;;;11.07;6.53;;;;;;;;;;5007654;28;20102;-79
2023/11/13 05:43:36;;;;;;;12.50;6.27;;;;;;;;;;4996059;28;20034;-79
2023/11/13 05:48:51;;;;;;;13.60;6.63;;;;;;;;;;4994805;28;20042;-78
2023/11/13 05:51:20;;;;;;;12.93;6.40;;;;;;;;;;4998692;28;20090;-79
2023/11/13 05:53:49;;;;;;;12.57;6.00;;;;;;;;;;4998523;28;20030;-78
2023/11/13 05:56:16;;;;;;;13.47;7.37;;;;;;;;;;4998483;28;20030;-79
2023/11/13 05:58:42;;;;;;;9.70;6.10;;;;;;;;;;4998329;28;20018;-77
2023/11/13 06:01:10;;;;;;;13.70;6.57;;;;;;;;;;4998064;28;20027;-78
2023/11/13 06:03:36;;;;;;;11.53;6.73;;;;;;;;;;4998501;28;20031;-78
2023/11/13 06:06:06;;;;;;;13.37;6.60;;;;;;;;;;4990815;28;20034;-78
2023/11/13 06:08:42;;;;;;;9.83;6.13;;;;;;;;;;4990087;28;20065;-78
2023/11/13 06:11:10;;;;;;;10.83;5.80;;;;;;;;;;4998132;28;20054;-79
2023/11/13 06:13:37;;;;;;;9.30;6.30;;;;;;;;;;4995971;28;20007;-81
2023/11/13 06:16:04;;;;;;;10.27;5.73;;;;;;;;;;4998107;28;20030;-79
2023/11/13 06:18:31;;;;;;;10.23;6.20;;;;;;;;;;4994659;28;20042;-78
2023/11/13 06:20:59;;;;;;;9.70;5.40;;;;;;;;;;4993320;28;20022;-79
2023/11/13 06:23:25;;;;;;;12.17;6.73;;;;;;;;;;4994137;28;20030;-79
2023/11/13 06:25:52;;;;;;;8.73;5.83;;;;;;;;;;4993418;28;20011;-78
2023/11/13 06:28:23;;;;;;;10.23;5.47;;;;;;;;;;5007484;28;20036;-78
2023/11/13 06:30:49;;;;;;;10.00;5.33;;;;;;;;;;4992992;28;20019;-78
2023/11/13 06:33:17;;;;;;;8.73;4.77;;;;;;;;;;5008159;28;20062;-78
2023/11/13 06:35:46;;;;;;;12.37;5.43;;;;;;;;;;5008719;28;20023;-79
2023/11/13 06:38:12;;;;;;;8.20;4.97;;;;;;;;;;5007853;28;20869;-79
2023/11/13 06:40:40;;;;;;;10.03;4.97;;;;;;;;;;5008306;28;20027;-79
2023/11/13 06:43:07;;;;;;;7.77;4.40;;;;;;;;;;5007115;28;20022;-78
2023/11/13 06:45:34;;;;;;;12.00;5.23;;;;;;;;;;5009233;28;20249;-78
2023/11/13 06:48:00;;;;;;;11.57;5.33;;;;;;;;;;5009031;28;20039;-78
2023/11/13 06:50:28;;;;;;;10.30;5.13;;;;;;;;;;4992477;28;20225;-78
2023/11/13 06:52:55;;;;;;;9.13;4.30;;;;;;;;;;4992687;28;20015;-78
2023/11/13 06:55:21;;;;;;;9.20;4.20;;;;;;;;;;4988145;28;20050;-78
2023/11/13 06:57:47;;;;;;;9.57;4.10;;;;;;;;;;5008920;28;20033;-78
2023/11/13 07:00:13;;;;;;;8.37;4.33;;;;;;;;;;5007375;28;20058;-78
2023/11/13 07:02:41;;;;;;;10.93;3.97;;;;;;;;;;4992553;28;20046;-79
2023/11/13 07:05:08;;;;;;;10.10;4.27;;;;;;;;;;5008388;28;20090;-78
2023/11/13 07:07:36;;;;;;;11.47;4.70;;;;;;;;;;4993690;28;20026;-78
2023/11/13 07:10:04;;;;;;;9.63;4.23;;;;;;;;;;5008781;28;20015;-78
2023/11/13 07:12:34;;;;;;;8.20;4.60;;;;;;;;;;4993714;28;20026;-78
2023/11/13 07:15:03;;;;;;;18.33;5.23;;;;;;;;;;4990101;28;20023;-78
2023/11/13 07:17:31;;;;;;;13.57;5.10;;;;;;;;;;5009150;28;20054;-77
2023/11/13 07:19:58;;;;;;;12.40;5.07;;;;;;;;;;5009012;28;20015;-78
2023/11/13 07:22:26;;;;;;;10.87;5.03;;;;;;;;;;4992683;28;20019;-77
2023/11/13 07:24:53;;;;;;;15.40;5.67;;;;;;;;;;4992851;28;20038;-78
2023/11/13 07:27:21;;;;;;;19.00;5.60;;;;;;;;;;4988500;28;20030;-78
2023/11/13 07:29:49;;;;;;;10.73;4.47;;;;;;;;;;4993431;28;20015;-78
2023/11/13 07:32:15;;;;;;;12.77;4.20;;;;;;;;;;4993773;28;20027;-78
2023/11/13 07:34:47;;;;;;;14.97;4.90;;;;;;;;;;5013397;28;20111;-78
2023/11/13 07:37:18;;;;;;;11.07;4.50;;;;;;;;;;5012334;28;20034;-78
2023/11/13 07:40:08;;;;;;;11.30;5.00;;;;;;;;;;4994450;28;20030;-78
2023/11/13 07:42:37;;;;;;;14.07;5.40;;;;;;;;;;5013132;28;20099;-79
2023/11/13 07:45:06;;;;;;;15.40;5.07;;;;;;;;;;5013176;28;20041;-79
2023/11/13 07:47:32;;;;;;;9.30;4.57;;;;;;;;;;5012779;28;21330;-78
2023/11/13 07:50:00;;;;;;;10.20;5.23;;;;;;;;;;5012864;28;20274;-79
2023/11/13 07:52:33;;;;;;;18.67;5.27;;;;;;;;;;5012387;28;20099;-79
2023/11/13 07:55:01;;;;;;;9.40;4.20;;;;;;;;;;5012811;28;20026;-78
2023/11/13 07:57:27;;;;;;;11.27;4.27;;;;;;;;;;4996387;28;20049;-79
2023/11/13 07:59:53;;;;;;;16.73;4.30;;;;;;;;;;4996469;28;20030;-78
2023/11/13 08:02:19;;;;;;;15.37;4.90;;;;;;;;;;5012820;28;20011;-79
2023/11/13 08:04:49;;;;;;;10.37;4.50;;;;;;;;;;4990674;28;20035;-78
2023/11/13 08:07:16;;;;;;;12.60;4.70;;;;;;;;;;5010124;28;20534;-78
2023/11/13 08:09:45;;;;;;;15.50;5.03;;;;;;;;;;5012431;28;20047;-79
2023/11/13 08:12:18;;;;;;;11.07;4.50;;;;;;;;;;5012649;28;20037;-78
2023/11/13 08:14:47;;;;;;;16.30;4.63;;;;;;;;;;4995766;28;20019;-78
2023/11/13 08:17:13;;;;;;;10.83;4.37;;;;;;;;;;5012561;28;20090;-79
2023/11/13 08:19:39;;;;;;;14.93;4.90;;;;;;;;;;5012418;28;20027;-79
2023/11/13 08:22:05;;;;;;;11.03;4.27;;;;;;;;;;5011974;28;20022;-79
2023/11/13 08:24:31;;;;;;;10.97;4.27;;;;;;;;;;5012079;28;20127;-78
2023/11/13 08:26:57;;;;;;;13.40;3.80;;;;;;;;;;5011919;28;20046;-79
2023/11/13 08:29:25;;;;;;;16.90;5.23;;;;;;;;;;5012237;28;20034;-78
2023/11/13 08:31:53;;;;;;;12.73;4.37;;;;;;;;;;4996359;28;20015;-78
2023/11/13 08:34:23;;;;;;;11.30;3.27;;;;;;;;;;5012662;28;20046;-78
2023/11/13 08:36:51;;;;;;;9.73;3.57;;;;;;;;;;5012414;28;20015;-78
2023/11/13 08:39:22;;;;;;;16.83;4.27;;;;;;;;;;4992263;28;20046;-79
2023/11/13 08:41:50;;;;;;;14.03;3.43;;;;;;;;;;5010975;28;20033;-79
2023/11/13 08:44:23;;;;;;;13.67;4.57;;;;;;;;;;4995447;28;20035;-79
2023/11/13 08:46:49;;;;;;;10.97;3.07;;;;;;;;;;5010961;28;20015;-78
2023/11/13 08:49:15;;;;;;;14.43;3.17;;;;;;;;;;5010327;28;20031;-79
2023/11/13 08:51:43;;;;;;;8.20;2.60;;;;;;;;;;4994883;28;20046;-79
2023/11/13 08:54:12;;;;;;;10.13;3.20;;;;;;;;;;4993976;28;20062;-78
2023/11/13 08:56:41;;;;;;;14.40;3.27;;;;;;;;;;5010937;28;20051;-79
2023/11/13 08:59:11;;;;;;;12.67;3.10;;;;;;;;;;5009545;28;20023;-78
2023/11/13 09:01:40;;;;;;;16.03;4.30;;;;;;;;;;5010155;28;20015;-78
2023/11/13 09:04:08;;;;;;;10.30;3.03;;;;;;;;;;5009143;28;20045;-78
2023/11/13 09:06:36;;;;;;;15.67;2.73;;;;;;;;;;5010057;28;20038;-78
2023/11/13 09:09:11;;;;;;;8.97;2.20;;;;;;;;;;5009672;28;20046;-78
2023/11/13 09:11:40;;;;;;;13.03;2.40;;;;;;;;;;4995072;28;20019;-78
2023/11/13 09:14:09;;;;;;;11.47;2.53;;;;;;;;;;5007056;28;20047;-78
2023/11/13 09:16:44;;;;;;;8.87;2.50;;;;;;;;;;4994614;28;20011;-78
2023/11/13 09:19:12;;;;;;;7.93;2.77;;;;;;;;;;5010778;28;20027;-78
2023/11/13 09:21:40;;;;;;;7.90;2.70;;;;;;;;;;4989728;28;20058;-79
2023/11/13 09:24:09;;;;;;;6.37;2.60;;;;;;;;;;5009003;28;20046;-78
2023/11/13 09:26:53;;;;;;;11.57;3.27;;;;;;;;;;4989584;28;20110;-79
2023/11/13 09:29:20;;;;;;;9.57;3.27;;;;;;;;;;5010697;28;20029;-79
2023/11/13 09:31:47;;;;;;;8.47;2.33;;;;;;;;;;4995168;28;20019;-79
2023/11/13 09:34:15;;;;;;;11.30;2.20;;;;;;;;;;4994578;28;20115;-78
2023/11/13 09:36:44;;;;;;;7.03;2.47;;;;;;;;;;4994340;28;20027;-78
2023/11/13 09:39:30;;;;;;;10.43;2.37;;;;;;;;;;4993517;28;20050;-78
2023/11/13 09:42:00;;;;;;;4.17;1.93;;;;;;;;;;5007386;28;20016;-78
2023/11/13 09:44:34;;;;;;;10.00;2.53;;;;;;;;;;5009009;28;20037;-78
2023/11/13 09:47:03;;;;;;;9.57;3.50;;;;;;;;;;5009250;28;20034;-79
2023/11/13 09:49:34;;;;;;;6.07;2.57;;;;;;;;;;5009863;28;20018;-80
2023/11/13 09:52:04;;;;;;;6.90;2.60;;;;;;;;;;4993174;28;20034;-79
2023/11/13 09:54:31;;;;;;;8.07;2.60;;;;;;;;;;5008703;28;20136;-79
2023/11/13 09:57:01;;;;;;;7.57;2.67;;;;;;;;;;5008080;28;20037;-79
2023/11/13 09:59:33;;;;;;;7.67;2.57;;;;;;;;;;4993100;28;20012;-79
2023/11/13 10:02:07;;;;;;;;;;;;;;;;;;4994786;28;20046;-79
2023/11/13 10:04:33;;;;;;;8.20;2.93;;;;;;;;;;5008374;28;19985;-79
2023/11/13 10:07:02;;;;;;;6.87;2.23;;;;;;;;;;5008986;28;20074;-79
2023/11/13 10:09:30;;;;;;;7.57;2.20;;;;;;;;;;4993989;28;20015;-80
2023/11/13 10:12:02;;;;;;;5.13;2.10;;;;;;;;;;4994163;28;20027;-79
2023/11/13 10:14:29;;;;;;;9.90;2.92;;;;;;;;;;5009019;28;20038;-80
2023/11/13 10:17:02;;;;;;;6.67;2.50;;;;;;;;;;4993348;28;20011;-79
2023/11/13 10:19:28;;;;;;;6.28;2.30;;;;;;;;;;5008914;28;20054;-79
2023/11/13 10:21:56;;;;;;;8.93;2.70;;;;;;;;;;4992469;28;20015;-79
2023/11/13 10:24:31;;;;;;;7.03;2.50;;;;;;;;;;5007823;28;20027;-79
2023/11/13 10:26:59;;;;;;;8.37;3.13;;;;;;;;;;5009379;28;20022;-79
2023/11/13 10:29:34;;;;;;;4.43;2.07;;;;;;;;;;5008768;28;20021;-79
2023/11/13 10:32:05;;;;;;;3.43;2.03;;;;;;;;;;4993544;28;20034;-80
2023/11/13 10:34:42;;;;;;;8.27;2.87;;;;;;;;;;5009843;28;20015;-79
2023/11/13 10:37:11;;;;;;;5.50;2.37;;;;;;;;;;5007768;28;20042;-79
2023/11/13 10:39:42;;;;;;;7.50;2.30;;;;;;;;;;4992989;28;20013;-79
2023/11/13 10:42:26;;;;;;;7.00;2.67;;;;;;;;;;5011044;28;20014;-80
2023/11/13 10:45:03;;;;;;;10.23;2.60;;;;;;;;;;5001320;28;20042;-79
2023/11/13 10:47:35;;;;;;;6.13;2.30;;;;;;;;;;5013957;28;20090;-80
2023/11/13 10:50:15;;;;;;;4.50;2.17;;;;;;;;;;5015049;28;20039;-79
2023/11/13 10:52:50;;;;;;;5.57;2.57;;;;;;;;;;4993343;28;20273;-78
2023/11/13 10:55:22;;;;;;;5.60;2.80;;;;;;;;;;4997860;28;20026;-79
2023/11/13 10:57:49;;;;;;;6.03;2.60;;;;;;;;;;4994199;28;20039;-80
2023/11/13 11:00:15;;;;;;;7.93;3.13;;;;;;;;;;4994835;28;20011;-79
2023/11/13 11:39:18;;;;;;;4.83;2.07;;;;;;;;;;4944693;29;19962;-81
2023/11/13 12:02:32;;;;;;;8.83;3.00;;;;;;;;;;5516780;23;20066;-80
2023/11/13 12:05:00;;;;;;;9.10;3.30;;;;;;;;;;5021295;28;20065;-80
2023/11/13 12:07:26;;;;;;;7.00;3.13;;;;;;;;;;5020478;28;20014;-80
2023/11/13 12:09:54;;;;;;;6.70;2.87;;;;;;;;;;5036661;28;20029;-81
2023/11/13 12:12:20;;;;;;;4.37;2.50;;;;;;;;;;5017977;28;20011;-80
2023/11/13 12:14:49;;;;;;;7.03;2.17;;;;;;;;;;5015729;28;20015;-80
2023/11/13 12:17:15;;;;;;;6.83;2.83;;;;;;;;;;5019539;28;20045;-79
2023/11/13 12:19:43;;;;;;;8.00;2.70;;;;;;;;;;5011709;28;20034;-80
2023/11/13 12:22:09;;;;;;;11.90;3.60;;;;;;;;;;5007223;28;20060;-80
2023/11/13 12:24:35;;;;;;;10.23;3.17;;;;;;;;;;5010309;28;20049;-81
2023/11/13 12:27:04;;;;;;;8.73;3.90;;;;;;;;;;5021471;28;20038;-79
2023/11/13 12:29:33;;;;;;;8.73;3.00;;;;;;;;;;5010606;28;20062;-79
2023/11/13 12:32:00;;;;;;;7.77;3.30;;;;;;;;;;5010536;28;20031;-79
2023/11/13 12:34:31;;;;;;;13.37;3.87;;;;;;;;;;5009188;28;20026;-80
2023/11/13 12:37:00;;;;;;;7.47;3.63;;;;;;;;;;5025307;28;20022;-79
2023/11/13 12:39:27;;;;;;;9.80;4.20;;;;;;;;;;5008826;28;20037;-80
2023/11/13 12:42:02;;;;;;;6.63;3.20;;;;;;;;;;5019915;28;20026;-80
2023/11/13 12:44:30;;;;;;;7.37;3.17;;;;;;;;;;5348540;23;20094;-79
2023/11/13 12:49:32;;;;;;;5.03;2.40;;;;;;;;;;4997103;23;20041;-79
2023/11/13 12:52:00;;;;;;;6.57;2.30;;;;;;;;;;5113982;23;20051;-79
2023/11/13 12:54:28;;;;;;;11.83;2.87;;;;;;;;;;4995091;28;20035;-81
2023/11/13 12:56:54;;;;;;;4.63;2.30;;;;;;;;;;4981309;28;20026;-79
2023/11/13 12:59:20;;;;;;;4.83;2.23;;;;;;;;;;4994630;28;20027;-80
2023/11/13 13:01:49;;;;;;;4.47;2.57;;;;;;;;;;5136051;23;20079;-78
2023/11/13 13:06:54;;;;;;;5.70;2.07;;;;;;;;;;5269673;23;20119;-80
2023/11/13 13:09:22;;;;;;;5.47;2.30;;;;;;;;;;5028819;23;20039;-79
2023/11/13 13:11:55;;;;;;;5.30;2.43;;;;;;;;;;5023407;23;20030;-79
2023/11/13 15:08:06;;;;;;;0.97;0.37;;;;;;;;;;4970106;28;20180;-80
2023/11/13 15:10:35;;;;;;;0.63;0.45;;;;;;;;;;4985569;28;20274;-80
2023/11/13 15:13:11;;;;;;;4.55;0.60;;;;;;;;;;5043859;23;20045;-78
2023/11/13 15:15:40;;;;;;;0.70;0.22;;;;;;;;;;4971358;28;20023;-79
2023/11/13 15:18:08;;;;;;;1.15;0.40;;;;;;;;;;4971345;28;20056;-79
2023/11/13 15:20:34;;;;;;;2.20;0.28;;;;;;;;;;4972300;28;20050;-79
2023/11/13 15:23:11;;;;;;;3.90;0.40;;;;;;;;;;4971657;28;20051;-78
2023/11/13 15:25:41;;;;;;;9.02;1.55;;;;;;;;;;4971797;28;20058;-78
2023/11/13 15:28:07;;;;;;;1.77;0.45;;;;;;;;;;5047930;23;20042;-78
2023/11/13 15:31:17;;;;;;;4.30;0.70;;;;;;;;;;5104934;23;20034;-78
2023/11/13 15:33:59;;;;;;;;;;;;;;;;;;;;;
2023/11/13 15:36:33;;;;;;;1.63;0.50;;;;;;;;;;5087398;23;20074;-78
2023/11/13 15:41:36;;;;;;;5.35;0.40;;;;;;;;;;4971227;28;20040;-77
2023/11/13 15:44:07;;;;;;;0.68;0.25;;;;;;;;;;4972853;28;20035;-78
2023/11/13 15:46:35;;;;;;;1.63;0.30;;;;;;;;;;4982789;28;20016;-78
2023/11/13 15:49:22;;;;;;;2.58;0.50;;;;;;;;;;4974299;28;20035;-77
2023/11/13 15:51:50;;;;;;;1.20;0.40;;;;;;;;;;4990191;28;20019;-75
2023/11/13 15:54:19;;;;;;;0.73;0.20;;;;;;;;;;4975358;28;20071;-77
2023/11/13 15:56:47;;;;;;;0.95;0.30;;;;;;;;;;4990948;28;20023;-77
2023/11/13 15:59:13;;;;;;;2.40;0.50;;;;;;;;;;4976036;28;20039;-76
2023/11/13 16:01:39;;;;;;;1.95;0.63;;;;;;;;;;4987916;28;20087;-77
2023/11/13 16:04:06;;;;;;;3.10;0.32;;;;;;;;;;4976149;28;20031;-76
2023/11/13 16:06:34;;;;;;;3.60;0.70;;;;;;;;;;4988387;28;20043;-77
2023/11/13 16:09:03;;;;;;;9.73;1.43;;;;;;;;;;4973901;28;20032;-76
2023/11/13 16:11:31;;;;;;;3.47;1.10;;;;;;;;;;4967772;28;20031;-77
2023/11/13 16:13:59;;;;;;;3.93;1.27;;;;;;;;;;4989556;28;20012;-77
2023/11/13 16:16:28;;;;;;;6.63;1.10;;;;;;;;;;4986327;28;20064;-77
2023/11/13 16:18:56;;;;;;;2.40;0.73;;;;;;;;;;4974610;28;20027;-77
2023/11/13 16:21:26;;;;;;;2.40;0.70;;;;;;;;;;4985909;28;20034;-77
2023/11/13 16:23:55;;;;;;;5.45;1.10;;;;;;;;;;4970956;28;20040;-78
2023/11/13 16:26:28;;;;;;;5.57;1.17;;;;;;;;;;4975693;28;20034;-78
2023/11/13 16:28:55;;;;;;;5.50;1.20;;;;;;;;;;4987936;28;20120;-78
2023/11/13 16:31:24;;;;;;;6.13;1.10;;;;;;;;;;4990020;28;20035;-78
2023/11/13 16:33:54;;;;;;;5.93;1.13;;;;;;;;;;4990190;28;20011;-77
2023/11/13 16:36:27;;;;;;;7.47;1.20;;;;;;;;;;4990075;28;20023;-79
2023/11/13 16:38:53;;;;;;;5.97;1.13;;;;;;;;;;4991511;28;20031;-78
2023/11/13 16:41:23;;;;;;;6.27;0.77;;;;;;;;;;4974656;28;20043;-78
2023/11/13 16:43:51;;;;;;;7.22;1.20;;;;;;;;;;4996529;28;20047;-79
2023/11/13 16:46:21;;;;;;;7.43;1.43;;;;;;;;;;4980835;28;20015;-80
2023/11/13 16:48:50;;;;;;;6.13;1.30;;;;;;;;;;4996745;28;20039;-78
2023/11/13 16:51:19;;;;;;;8.20;1.10;;;;;;;;;;4981112;28;20004;-78
2023/11/13 16:53:53;;;;;;;8.23;1.70;;;;;;;;;;4981466;28;20104;-79
2023/11/13 16:56:25;;;;;;;10.97;2.00;;;;;;;;;;4979854;28;20039;-80
2023/11/13 16:58:51;;;;;;;9.43;1.95;;;;;;;;;;5040208;23;20031;-78
2023/11/13 17:01:21;;;;;;;10.10;2.20;;;;;;;;;;4984380;28;20038;-79
2023/11/13 17:03:47;;;;;;;9.10;1.20;;;;;;;;;;4978948;28;20023;-78
2023/11/13 17:06:15;;;;;;;10.07;1.40;;;;;;;;;;4977383;28;20031;-79
2023/11/13 17:11:17;;;;;;;10.20;1.87;;;;;;;;;;5258912;23;20035;-77
2023/11/13 17:19:09;;;;;;;14.23;2.70;;;;;;;;;;4978548;28;20031;-78
2023/11/13 17:50:25;;;;;;;26.60;4.17;;;;;;;;;;5318392;23;20058;-79
2023/11/13 17:52:53;;;;;;;15.80;3.77;;;;;;;;;;4986098;28;20022;-80
2023/11/13 17:55:20;;;;;;;21.53;3.20;;;;;;;;;;4997274;28;20025;-78
2023/11/13 17:57:46;;;;;;;17.10;3.10;;;;;;;;;;4994852;28;20035;-78
2023/11/13 18:00:13;;;;;;;16.50;4.03;;;;;;;;;;4992506;28;20011;-80
2023/11/13 18:02:40;;;;;;;16.50;3.57;;;;;;;;;;5213025;23;20079;-81
2023/11/13 18:05:11;;;;;;;16.37;3.07;;;;;;;;;;4978591;28;20039;-80
2023/11/13 18:07:40;;;;;;;21.23;3.50;;;;;;;;;;4993777;28;20011;-78
2023/11/13 18:10:19;;;;;;;20.90;3.83;;;;;;;;;;4993564;28;20003;-78
2023/11/13 18:23:27;;;;;;;14.80;2.50;;;;;;;;;;5289687;23;20062;-79
2023/11/13 18:29:40;;;;;;;;;;;;;;;;;;;;;
2023/11/13 19:01:32;;;;;;;17.50;3.33;;;;;;;;;;5951669;23;20059;-79
2023/11/13 19:04:04;;;;;;;23.20;4.20;;;;;;;;;;5226634;23;20089;-80
2023/11/13 19:06:30;;;;;;;17.13;3.00;;;;;;;;;;4990002;28;20027;-79
2023/11/13 19:09:05;;;;;;;19.63;4.90;;;;;;;;;;5150488;23;20022;-80
2023/11/13 19:11:31;;;;;;;20.77;4.43;;;;;;;;;;5009828;28;20069;-78
2023/11/13 19:14:05;;;;;;;19.90;3.97;;;;;;;;;;4988781;28;20039;-80
2023/11/13 19:16:34;;;;;;;21.47;3.90;;;;;;;;;;4988775;28;20027;-80
2023/11/13 19:19:08;;;;;;;20.13;4.27;;;;;;;;;;4988829;28;20019;-79
2023/11/13 19:21:39;;;;;;;19.30;4.13;;;;;;;;;;5007517;28;20931;-80
2023/11/13 19:24:21;;;;;;;24.13;4.37;;;;;;;;;;4987187;28;20033;-79